Time;durP1;ratioP1;P1;durP2;ratioP2;P2;SDS_P1;SDS_P2;PMS_P1;PMS_P2;Temp;Humidity;BMP_temperature;BMP_pressure;BME280_temperature;BME280_humidity;BME280_pressure;Samples;Min_cycle;Max_cycle;Signal;HPM_P1;HPM_P2
2022/07/07 00:02:05;;;;;;;0.30;0.30;;;;;;;;;;4975655;28;20039;-81
2022/07/07 00:04:30;;;;;;;0.50;0.47;;;;;;;;;;4974714;28;20035;-82
2022/07/07 00:06:59;;;;;;;0.90;0.52;;;;;;;;;;4949566;28;20054;-81
2022/07/07 00:09:25;;;;;;;0.60;0.60;;;;;;;;;;4943543;28;20092;-82
2022/07/07 00:11:50;;;;;;;1.27;0.93;;;;;;;;;;4959627;28;20364;-79
2022/07/07 00:14:16;;;;;;;0.60;0.40;;;;;;;;;;4959524;28;20104;-81
2022/07/07 00:16:41;;;;;;;0.52;0.52;;;;;;;;;;4958552;28;20101;-81
2022/07/07 00:19:09;;;;;;;1.17;1.02;;;;;;;;;;4956210;28;20315;-81
2022/07/07 00:21:37;;;;;;;0.13;0.13;;;;;;;;;;4962026;28;20026;-81
2022/07/07 00:24:02;;;;;;;0.30;0.30;;;;;;;;;;4959337;28;20766;-81
2022/07/07 00:26:30;;;;;;;0.13;0.13;;;;;;;;;;4959413;28;20035;-82
2022/07/07 00:28:55;;;;;;;0.60;0.60;;;;;;;;;;4958594;28;20026;-82
2022/07/07 00:31:23;;;;;;;1.27;0.50;;;;;;;;;;4958908;28;20094;-81
2022/07/07 00:33:49;;;;;;;0.32;0.32;;;;;;;;;;4975489;28;20035;-80
2022/07/07 00:36:14;;;;;;;1.17;0.45;;;;;;;;;;4974638;28;20029;-81
2022/07/07 00:38:42;;;;;;;1.35;0.77;;;;;;;;;;4957989;28;20110;-81
2022/07/07 00:41:08;;;;;;;0.63;0.63;;;;;;;;;;4958689;28;20026;-81
2022/07/07 00:43:43;;;;;;;0.10;0.10;;;;;;;;;;4958059;28;20042;-82
2022/07/07 00:46:11;;;;;;;1.13;1.02;;;;;;;;;;4950146;29;20027;-82
2022/07/07 00:48:38;;;;;;;0.20;0.20;;;;;;;;;;4942794;28;20130;-81
2022/07/07 00:51:07;;;;;;;0.40;0.40;;;;;;;;;;4975048;28;20038;-81
2022/07/07 00:53:35;;;;;;;0.35;0.35;;;;;;;;;;4958286;28;20031;-81
2022/07/07 00:56:04;;;;;;;0.70;0.70;;;;;;;;;;4958865;28;20034;-82
2022/07/07 00:58:29;;;;;;;0.52;0.30;;;;;;;;;;4974643;28;20109;-82
2022/07/07 01:00:57;;;;;;;0.50;0.30;;;;;;;;;;4949582;29;20104;-82
2022/07/07 01:03:23;;;;;;;0.20;0.20;;;;;;;;;;4941851;28;20027;-82
2022/07/07 01:05:56;;;;;;;0.32;0.32;;;;;;;;;;4958679;28;20030;-81
2022/07/07 01:08:21;;;;;;;0.30;0.30;;;;;;;;;;4958131;28;20122;-81
2022/07/07 01:10:49;;;;;;;0.88;0.35;;;;;;;;;;4973740;28;20421;-81
2022/07/07 01:13:14;;;;;;;0.10;0.10;;;;;;;;;;4975040;28;20030;-82
2022/07/07 01:15:39;;;;;;;0.57;0.30;;;;;;;;;;4954423;29;20043;-81
2022/07/07 01:18:07;;;;;;;0.25;0.25;;;;;;;;;;4974447;28;20427;-80
2022/07/07 01:20:33;;;;;;;1.30;1.20;;;;;;;;;;4975018;28;20066;-81
2022/07/07 01:22:58;;;;;;;0.30;0.30;;;;;;;;;;4973466;28;20070;-82
2022/07/07 01:25:27;;;;;;;0.15;0.15;;;;;;;;;;4955282;29;20117;-82
2022/07/07 01:27:55;;;;;;;0.80;0.30;;;;;;;;;;4939583;29;20090;-82
2022/07/07 01:30:20;;;;;;;2.13;0.63;;;;;;;;;;4953118;28;20027;-82
2022/07/07 01:32:46;;;;;;;0.22;0.22;;;;;;;;;;4958725;28;20023;-82
2022/07/07 01:35:17;;;;;;;0.28;0.20;;;;;;;;;;4954692;28;20086;-81
2022/07/07 01:37:42;;;;;;;0.90;0.68;;;;;;;;;;4958736;28;20462;-82
2022/07/07 01:40:08;;;;;;;0.20;0.20;;;;;;;;;;4958890;28;20038;-81
2022/07/07 01:42:35;;;;;;;0.57;0.47;;;;;;;;;;4975315;28;20018;-81
2022/07/07 01:45:01;;;;;;;0.22;0.22;;;;;;;;;;4973742;28;20031;-81
2022/07/07 01:47:30;;;;;;;0.30;0.30;;;;;;;;;;4958686;28;20097;-82
2022/07/07 01:49:55;;;;;;;0.13;0.13;;;;;;;;;;4954563;28;20372;-80
2022/07/07 01:52:20;;;;;;;0.10;0.10;;;;;;;;;;4939289;29;20023;-81
2022/07/07 01:54:46;;;;;;;0.70;0.45;;;;;;;;;;4974683;28;20022;-82
2022/07/07 01:57:12;;;;;;;0.75;0.75;;;;;;;;;;4977541;28;20448;-80
2022/07/07 01:59:38;;;;;;;0.60;0.60;;;;;;;;;;4956670;29;20058;-82
2022/07/07 02:02:08;;;;;;;0.20;0.20;;;;;;;;;;4957437;28;20031;-81
2022/07/07 02:04:33;;;;;;;0.45;0.30;;;;;;;;;;4960936;28;20034;-81
2022/07/07 02:06:59;;;;;;;6.53;1.00;;;;;;;;;;4977917;28;20042;-81
2022/07/07 02:09:26;;;;;;;0.32;0.20;;;;;;;;;;4976944;28;20027;-82
2022/07/07 02:11:54;;;;;;;0.75;0.57;;;;;;;;;;4961724;28;20023;-81
2022/07/07 02:14:21;;;;;;;0.55;0.55;;;;;;;;;;4961590;28;20027;-82
2022/07/07 02:16:47;;;;;;;0.68;0.38;;;;;;;;;;4977377;28;20483;-81
2022/07/07 02:19:15;;;;;;;0.22;0.22;;;;;;;;;;4978042;28;20030;-81
2022/07/07 02:21:43;;;;;;;0.38;0.38;;;;;;;;;;4976633;28;20034;-80
2022/07/07 02:24:09;;;;;;;1.05;0.57;;;;;;;;;;4978380;28;20106;-81
2022/07/07 02:26:37;;;;;;;0.60;0.60;;;;;;;;;;4977369;28;20118;-81
2022/07/07 02:29:05;;;;;;;0.45;0.40;;;;;;;;;;4959337;28;20030;-80
2022/07/07 02:31:30;;;;;;;0.52;0.50;;;;;;;;;;4960193;28;20504;-79
2022/07/07 02:33:58;;;;;;;0.70;0.50;;;;;;;;;;4977676;28;20114;-81
2022/07/07 02:36:23;;;;;;;1.65;0.90;;;;;;;;;;4977955;28;20062;-81
2022/07/07 02:38:51;;;;;;;1.58;1.30;;;;;;;;;;4977095;28;20047;-80
2022/07/07 02:41:21;;;;;;;0.93;0.88;;;;;;;;;;4977064;28;20034;-80
2022/07/07 02:43:47;;;;;;;0.98;0.80;;;;;;;;;;4976422;28;20027;-80
2022/07/07 02:46:15;;;;;;;0.60;0.60;;;;;;;;;;4976609;28;20035;-80
2022/07/07 02:48:40;;;;;;;1.02;0.77;;;;;;;;;;4960320;28;20033;-81
2022/07/07 02:51:05;;;;;;;1.23;0.95;;;;;;;;;;4977020;28;20022;-81
2022/07/07 02:53:31;;;;;;;0.93;0.90;;;;;;;;;;4953925;28;20031;-81
2022/07/07 02:55:56;;;;;;;1.35;1.08;;;;;;;;;;4976256;28;20031;-81
2022/07/07 02:58:27;;;;;;;2.58;0.82;;;;;;;;;;4978055;28;20026;-82
2022/07/07 03:00:54;;;;;;;0.85;0.85;;;;;;;;;;4978017;28;20062;-81
2022/07/07 03:03:19;;;;;;;3.05;1.85;;;;;;;;;;4976930;28;20023;-81
2022/07/07 03:05:45;;;;;;;1.23;0.80;;;;;;;;;;4956685;28;20476;-80
2022/07/07 03:08:11;;;;;;;1.05;1.02;;;;;;;;;;4943967;28;20110;-80
2022/07/07 03:10:39;;;;;;;2.58;1.50;;;;;;;;;;4977153;28;20038;-81
2022/07/07 03:13:04;;;;;;;1.10;0.95;;;;;;;;;;4976599;28;20030;-79
2022/07/07 03:15:29;;;;;;;1.55;1.00;;;;;;;;;;4976229;28;20042;-79
2022/07/07 03:17:57;;;;;;;0.47;0.47;;;;;;;;;;4976748;28;20062;-81
2022/07/07 03:20:23;;;;;;;1.20;1.00;;;;;;;;;;4976906;28;20034;-81
2022/07/07 03:22:56;;;;;;;1.65;1.15;;;;;;;;;;4960488;28;20353;-81
2022/07/07 03:25:21;;;;;;;2.25;1.13;;;;;;;;;;4959830;28;20061;-81
2022/07/07 03:27:46;;;;;;;0.98;0.90;;;;;;;;;;4960085;28;20058;-81
2022/07/07 03:30:12;;;;;;;1.33;1.13;;;;;;;;;;4976135;28;20107;-81
2022/07/07 03:32:37;;;;;;;1.27;1.17;;;;;;;;;;4976021;28;20433;-80
2022/07/07 03:35:03;;;;;;;1.40;0.90;;;;;;;;;;4974447;28;20093;-81
2022/07/07 03:37:29;;;;;;;0.95;0.90;;;;;;;;;;4972622;28;20031;-81
2022/07/07 03:39:57;;;;;;;1.85;0.93;;;;;;;;;;4953338;28;20023;-81
2022/07/07 03:42:27;;;;;;;1.02;1.02;;;;;;;;;;4960468;28;20030;-81
2022/07/07 03:44:52;;;;;;;1.20;1.20;;;;;;;;;;4954523;28;20117;-83
2022/07/07 03:47:23;;;;;;;3.28;1.08;;;;;;;;;;4955977;28;20130;-79
2022/07/07 03:49:51;;;;;;;0.80;0.65;;;;;;;;;;4973870;28;20125;-79
2022/07/07 03:52:16;;;;;;;1.30;1.20;;;;;;;;;;4972266;28;20034;-80
2022/07/07 03:54:42;;;;;;;2.28;1.40;;;;;;;;;;4975608;28;20032;-80
2022/07/07 03:57:10;;;;;;;1.15;0.85;;;;;;;;;;4975567;28;20060;-80
2022/07/07 03:59:35;;;;;;;1.05;0.90;;;;;;;;;;4975776;28;20015;-80
2022/07/07 04:02:03;;;;;;;0.68;0.68;;;;;;;;;;4972425;28;20054;-80
2022/07/07 04:04:28;;;;;;;0.40;0.40;;;;;;;;;;4962681;28;20200;-79
2022/07/07 04:06:53;;;;;;;1.35;1.02;;;;;;;;;;4974604;28;20632;-79
2022/07/07 04:09:19;;;;;;;3.17;1.15;;;;;;;;;;4974978;28;20444;-79
2022/07/07 04:11:44;;;;;;;1.75;1.17;;;;;;;;;;4975539;28;20466;-79
2022/07/07 04:14:09;;;;;;;2.25;1.08;;;;;;;;;;4957815;28;20027;-79
2022/07/07 04:16:37;;;;;;;3.25;1.48;;;;;;;;;;4973972;28;20042;-78
2022/07/07 04:19:03;;;;;;;2.03;1.00;;;;;;;;;;4975728;28;20045;-76
2022/07/07 04:21:28;;;;;;;0.80;0.47;;;;;;;;;;4975966;28;20034;-76
2022/07/07 04:23:54;;;;;;;0.65;0.65;;;;;;;;;;4976379;28;20117;-76
2022/07/07 04:26:19;;;;;;;1.63;1.50;;;;;;;;;;4975527;28;20034;-76
2022/07/07 04:28:45;;;;;;;1.85;1.10;;;;;;;;;;4975459;28;20050;-77
2022/07/07 04:31:12;;;;;;;1.48;0.80;;;;;;;;;;4975169;28;20489;-77
2022/07/07 04:33:38;;;;;;;0.75;0.65;;;;;;;;;;4976117;28;20106;-77
2022/07/07 04:36:09;;;;;;;0.70;0.43;;;;;;;;;;4974839;28;20113;-78
2022/07/07 04:38:37;;;;;;;1.75;0.82;;;;;;;;;;4974752;28;20445;-77
2022/07/07 04:41:02;;;;;;;0.68;0.38;;;;;;;;;;4975392;28;20109;-77
2022/07/07 04:43:27;;;;;;;0.63;0.55;;;;;;;;;;4975757;28;20110;-78
2022/07/07 04:45:53;;;;;;;1.02;0.90;;;;;;;;;;4974713;28;20093;-77
2022/07/07 04:48:20;;;;;;;0.55;0.55;;;;;;;;;;4975777;28;20106;-80
2022/07/07 04:50:48;;;;;;;1.30;1.20;;;;;;;;;;4974881;28;20083;-78
2022/07/07 04:53:14;;;;;;;1.10;0.55;;;;;;;;;;4974855;28;20027;-78
2022/07/07 04:55:41;;;;;;;0.77;0.77;;;;;;;;;;4974675;28;20376;-78
2022/07/07 04:58:07;;;;;;;0.52;0.52;;;;;;;;;;4975948;28;20031;-78
2022/07/07 05:00:37;;;;;;;6.03;1.75;;;;;;;;;;4960402;28;20018;-76
2022/07/07 05:03:02;;;;;;;2.05;1.15;;;;;;;;;;4975140;28;20041;-78
2022/07/07 05:05:27;;;;;;;7.55;1.10;;;;;;;;;;4972996;28;20439;-80
2022/07/07 05:07:53;;;;;;;1.00;0.90;;;;;;;;;;4974019;28;20045;-80
2022/07/07 05:10:20;;;;;;;2.40;1.80;;;;;;;;;;4975508;28;20034;-81
2022/07/07 05:12:49;;;;;;;1.85;1.20;;;;;;;;;;4974910;28;20035;-79
2022/07/07 05:15:17;;;;;;;1.42;1.33;;;;;;;;;;4973545;28;20031;-80
2022/07/07 05:17:45;;;;;;;1.23;0.68;;;;;;;;;;4973355;28;20491;-79
2022/07/07 05:20:13;;;;;;;2.17;1.90;;;;;;;;;;4975530;28;20023;-78
2022/07/07 05:22:40;;;;;;;1.67;0.75;;;;;;;;;;4972840;28;20049;-78
2022/07/07 05:25:06;;;;;;;0.32;0.32;;;;;;;;;;4968266;28;20037;-79
2022/07/07 05:27:34;;;;;;;1.10;1.00;;;;;;;;;;4983407;28;20030;-78
2022/07/07 05:29:59;;;;;;;0.85;0.45;;;;;;;;;;4983513;28;20038;-78
2022/07/07 05:32:25;;;;;;;0.40;0.40;;;;;;;;;;4978108;28;20026;-79
2022/07/07 05:34:50;;;;;;;0.40;0.40;;;;;;;;;;4977956;28;20045;-79
2022/07/07 05:37:15;;;;;;;3.00;0.77;;;;;;;;;;4979459;28;20508;-80
2022/07/07 05:39:43;;;;;;;1.65;0.32;;;;;;;;;;4975834;28;20026;-77
2022/07/07 05:42:11;;;;;;;0.60;0.60;;;;;;;;;;4964098;28;20041;-80
2022/07/07 05:44:36;;;;;;;0.38;0.38;;;;;;;;;;4982037;28;20023;-80
2022/07/07 05:47:02;;;;;;;0.40;0.40;;;;;;;;;;4977865;28;20027;-81
2022/07/07 05:49:27;;;;;;;0.65;0.45;;;;;;;;;;4977569;28;20023;-80
2022/07/07 05:51:53;;;;;;;0.15;0.15;;;;;;;;;;4976841;28;20140;-80
2022/07/07 05:54:18;;;;;;;0.50;0.40;;;;;;;;;;4977275;28;20031;-78
2022/07/07 05:56:43;;;;;;;0.30;0.30;;;;;;;;;;4978862;28;20037;-78
2022/07/07 05:59:09;;;;;;;3.20;1.15;;;;;;;;;;4980788;28;20022;-81
2022/07/07 06:01:34;;;;;;;0.30;0.30;;;;;;;;;;4981138;28;20046;-78
2022/07/07 06:04:02;;;;;;;0.65;0.65;;;;;;;;;;4985071;28;20250;-83
2022/07/07 06:06:27;;;;;;;0.90;0.30;;;;;;;;;;4986442;28;20102;-82
2022/07/07 06:08:52;;;;;;;0.50;0.40;;;;;;;;;;4985040;28;20054;-80
2022/07/07 06:11:18;;;;;;;0.32;0.32;;;;;;;;;;4982651;28;20062;-81
2022/07/07 06:13:43;;;;;;;0.80;0.80;;;;;;;;;;4979640;28;20038;-81
2022/07/07 06:16:11;;;;;;;1.42;0.60;;;;;;;;;;4975627;28;20057;-79
2022/07/07 06:18:38;;;;;;;0.70;0.63;;;;;;;;;;4974744;28;20061;-78
2022/07/07 06:21:04;;;;;;;0.80;0.70;;;;;;;;;;4975937;28;20034;-80
2022/07/07 06:23:29;;;;;;;0.22;0.22;;;;;;;;;;4977854;28;20050;-78
2022/07/07 06:25:55;;;;;;;0.20;0.20;;;;;;;;;;4975968;28;20038;-81
2022/07/07 06:28:20;;;;;;;0.57;0.57;;;;;;;;;;4957979;28;20031;-81
2022/07/07 06:30:48;;;;;;;0.63;0.63;;;;;;;;;;4970852;28;20039;-83
2022/07/07 06:33:13;;;;;;;0.75;0.75;;;;;;;;;;4960682;28;20027;-83
2022/07/07 06:35:38;;;;;;;0.60;0.50;;;;;;;;;;4967451;28;20467;-80
2022/07/07 06:38:04;;;;;;;0.43;0.43;;;;;;;;;;4978084;28;20436;-80
2022/07/07 06:40:29;;;;;;;0.50;0.50;;;;;;;;;;4975204;28;20338;-80
2022/07/07 06:42:54;;;;;;;0.85;0.50;;;;;;;;;;4976360;28;20077;-81
2022/07/07 06:45:23;;;;;;;0.73;0.63;;;;;;;;;;4976913;28;20881;-79
2022/07/07 06:47:49;;;;;;;0.40;0.40;;;;;;;;;;4977443;28;20030;-78
2022/07/07 06:50:14;;;;;;;0.60;0.43;;;;;;;;;;4976764;28;20151;-81
2022/07/07 06:52:39;;;;;;;0.20;0.20;;;;;;;;;;4974361;28;20049;-81
2022/07/07 06:55:05;;;;;;;19.27;0.82;;;;;;;;;;4972560;28;20089;-78
2022/07/07 06:57:33;;;;;;;0.10;0.10;;;;;;;;;;4974924;28;20054;-82
2022/07/07 06:59:59;;;;;;;0.22;0.22;;;;;;;;;;4975337;28;20031;-82
2022/07/07 07:02:25;;;;;;;0.47;0.47;;;;;;;;;;4975775;28;20023;-80
2022/07/07 07:04:52;;;;;;;0.20;0.20;;;;;;;;;;4975609;28;20054;-81
2022/07/07 07:07:20;;;;;;;0.47;0.38;;;;;;;;;;4975286;28;20055;-81
2022/07/07 07:09:45;;;;;;;0.40;0.40;;;;;;;;;;4976681;28;20022;-81
2022/07/07 07:12:11;;;;;;;0.00;0.00;;;;;;;;;;4975180;28;20035;-81
2022/07/07 07:14:36;;;;;;;0.32;0.32;;;;;;;;;;4978409;28;20034;-79
2022/07/07 07:17:04;;;;;;;1.25;0.68;;;;;;;;;;4976593;28;20477;-80
2022/07/07 07:19:29;;;;;;;0.22;0.22;;;;;;;;;;4976604;28;20084;-78
2022/07/07 07:21:55;;;;;;;0.15;0.15;;;;;;;;;;4975932;28;20472;-80
2022/07/07 07:24:20;;;;;;;0.10;0.10;;;;;;;;;;4976806;28;20437;-84
2022/07/07 07:26:45;;;;;;;0.00;0.00;;;;;;;;;;4975145;28;20353;-82
2022/07/07 07:29:13;;;;;;;1.02;0.52;;;;;;;;;;4975851;28;20112;-86
2022/07/07 07:31:38;;;;;;;0.10;0.10;;;;;;;;;;4968294;28;20042;-82
2022/07/07 07:34:04;;;;;;;0.20;0.20;;;;;;;;;;4976949;28;20027;-80
2022/07/07 07:36:29;;;;;;;0.10;0.10;;;;;;;;;;4974220;28;20448;-80
2022/07/07 07:38:55;;;;;;;0.00;0.00;;;;;;;;;;4974195;28;20440;-79
2022/07/07 07:41:22;;;;;;;0.03;0.03;;;;;;;;;;4974688;28;20026;-80
2022/07/07 07:43:48;;;;;;;0.00;0.00;;;;;;;;;;4974607;28;20034;-81
2022/07/07 07:46:16;;;;;;;0.47;0.20;;;;;;;;;;4974483;28;20033;-79
2022/07/07 07:48:43;;;;;;;0.20;0.10;;;;;;;;;;4975269;28;20027;-80
2022/07/07 07:51:08;;;;;;;0.98;0.15;;;;;;;;;;4974463;28;20336;-79
2022/07/07 07:53:37;;;;;;;0.60;0.57;;;;;;;;;;4976285;28;20034;-80
2022/07/07 07:56:02;;;;;;;4.60;0.30;;;;;;;;;;4976530;28;20036;-80
2022/07/07 07:58:30;;;;;;;0.60;0.38;;;;;;;;;;4974363;28;20030;-80
2022/07/07 08:00:56;;;;;;;0.20;0.20;;;;;;;;;;4973290;28;20041;-80
2022/07/07 08:03:21;;;;;;;0.28;0.28;;;;;;;;;;4973973;28;20027;-80
2022/07/07 08:05:49;;;;;;;0.10;0.10;;;;;;;;;;4975764;28;20500;-80
2022/07/07 08:08:15;;;;;;;0.22;0.22;;;;;;;;;;4975383;28;20129;-81
2022/07/07 08:10:40;;;;;;;0.20;0.17;;;;;;;;;;4974883;28;20027;-80
2022/07/07 08:13:06;;;;;;;0.47;0.47;;;;;;;;;;4971691;28;20055;-78
2022/07/07 08:15:31;;;;;;;0.05;0.05;;;;;;;;;;4974074;28;20049;-80
2022/07/07 08:17:56;;;;;;;1.48;1.38;;;;;;;;;;4974363;28;20018;-78
2022/07/07 08:20:26;;;;;;;0.00;0.00;;;;;;;;;;4974463;28;20023;-79
2022/07/07 08:22:51;;;;;;;0.15;0.15;;;;;;;;;;4972924;28;20027;-80
2022/07/07 08:25:16;;;;;;;6.65;0.40;;;;;;;;;;4975544;28;20081;-80
2022/07/07 08:27:42;;;;;;;0.88;0.45;;;;;;;;;;4958220;28;20096;-80
2022/07/07 08:30:12;;;;;;;0.10;0.10;;;;;;;;;;4975281;28;20333;-80
2022/07/07 08:32:37;;;;;;;0.22;0.22;;;;;;;;;;4975173;28;20034;-80
2022/07/07 08:35:06;;;;;;;0.10;0.10;;;;;;;;;;4976081;28;20026;-79
2022/07/07 08:37:31;;;;;;;1.25;0.52;;;;;;;;;;4974012;28;20027;-79
2022/07/07 08:39:59;;;;;;;2.08;0.47;;;;;;;;;;4976274;28;20026;-80
2022/07/07 08:42:25;;;;;;;0.10;0.10;;;;;;;;;;4974658;28;20031;-79
2022/07/07 08:44:52;;;;;;;0.00;0.00;;;;;;;;;;4975154;28;20037;-79
2022/07/07 08:47:18;;;;;;;0.03;0.03;;;;;;;;;;4974089;28;20038;-80
2022/07/07 08:49:43;;;;;;;0.75;0.55;;;;;;;;;;4975871;28;20590;-81
2022/07/07 08:52:09;;;;;;;0.40;0.30;;;;;;;;;;4971687;28;20034;-82
2022/07/07 08:54:40;;;;;;;1.23;0.25;;;;;;;;;;4956504;28;20031;-81
2022/07/07 08:57:06;;;;;;;0.00;0.00;;;;;;;;;;4963089;28;20097;-83
2022/07/07 08:59:31;;;;;;;0.30;0.13;;;;;;;;;;4974981;28;20019;-79
2022/07/07 09:02:01;;;;;;;0.10;0.10;;;;;;;;;;4975498;28;20026;-82
2022/07/07 09:04:27;;;;;;;0.60;0.60;;;;;;;;;;4975097;28;20038;-81
2022/07/07 09:06:57;;;;;;;0.30;0.30;;;;;;;;;;4956485;28;20349;-80
2022/07/07 09:09:28;;;;;;;1.27;0.38;;;;;;;;;;4973067;28;20034;-80
2022/07/07 09:12:00;;;;;;;0.30;0.20;;;;;;;;;;4975835;28;20019;-83
2022/07/07 09:14:25;;;;;;;1.45;0.75;;;;;;;;;;4973433;28;20425;-79
2022/07/07 09:16:51;;;;;;;0.10;0.10;;;;;;;;;;4974180;28;20049;-80
2022/07/07 09:19:18;;;;;;;0.00;0.00;;;;;;;;;;4973729;28;20030;-79
2022/07/07 09:21:44;;;;;;;0.65;0.63;;;;;;;;;;4972870;28;20438;-80
2022/07/07 09:24:09;;;;;;;0.25;0.25;;;;;;;;;;4974262;28;20045;-81
2022/07/07 09:26:40;;;;;;;1.27;0.10;;;;;;;;;;4971992;28;20033;-81
2022/07/07 09:29:07;;;;;;;0.30;0.08;;;;;;;;;;4955313;28;20456;-80
2022/07/07 09:31:51;;;;;;;0.00;0.00;;;;;;;;;;4974360;28;20026;-81
2022/07/07 09:34:18;;;;;;;0.10;0.10;;;;;;;;;;4974875;28;20306;-83
2022/07/07 09:39:45;;;;;;;0.00;0.00;;;;;;;;;;4967953;28;20058;-81
2022/07/07 09:42:18;;;;;;;0.30;0.30;;;;;;;;;;4953605;28;20433;-81
2022/07/07 09:44:45;;;;;;;0.17;0.17;;;;;;;;;;4956093;28;20074;-81
2022/07/07 09:47:13;;;;;;;0.20;0.20;;;;;;;;;;4971826;28;20041;-81
2022/07/07 09:49:44;;;;;;;0.15;0.15;;;;;;;;;;4973453;28;20022;-81
2022/07/07 09:52:16;;;;;;;3.45;0.25;;;;;;;;;;4973264;28;20432;-82
2022/07/07 09:54:47;;;;;;;0.35;0.35;;;;;;;;;;4973657;28;20045;-79
2022/07/07 09:57:14;;;;;;;0.10;0.10;;;;;;;;;;4973589;28;20031;-78
2022/07/07 09:59:42;;;;;;;0.80;0.52;;;;;;;;;;4972290;28;20038;-80
2022/07/07 10:02:19;;;;;;;0.10;0.10;;;;;;;;;;4974134;28;20050;-81
2022/07/07 10:04:48;;;;;;;0.20;0.20;;;;;;;;;;4974540;28;20072;-80
2022/07/07 10:07:16;;;;;;;0.35;0.30;;;;;;;;;;4973086;28;20138;-77
2022/07/07 10:09:45;;;;;;;0.63;0.22;;;;;;;;;;4969613;28;20106;-81
2022/07/07 10:12:22;;;;;;;0.10;0.05;;;;;;;;;;4971296;28;20111;-84
2022/07/07 10:14:50;;;;;;;0.00;0.00;;;;;;;;;;4972183;28;20073;-83
2022/07/07 10:17:16;;;;;;;1.45;0.43;;;;;;;;;;4981683;28;20035;-84
2022/07/07 10:19:46;;;;;;;0.10;0.10;;;;;;;;;;4977034;28;20019;-84
2022/07/07 10:22:13;;;;;;;0.10;0.10;;;;;;;;;;4977314;28;20113;-82
2022/07/07 10:24:40;;;;;;;0.10;0.10;;;;;;;;;;4977625;28;20031;-83
2022/07/07 10:27:16;;;;;;;1.48;0.82;;;;;;;;;;4975881;28;20050;-82
2022/07/07 10:29:53;;;;;;;0.00;0.00;;;;;;;;;;4975421;28;20023;-80
2022/07/07 10:32:37;;;;;;;0.20;0.20;;;;;;;;;;4975957;28;20109;-80
2022/07/07 10:35:14;;;;;;;0.28;0.10;;;;;;;;;;4970000;28;20050;-80
2022/07/07 10:37:50;;;;;;;0.10;0.10;;;;;;;;;;4976638;28;20027;-81
2022/07/07 10:40:29;;;;;;;0.20;0.20;;;;;;;;;;4966045;28;20026;-83
2022/07/07 10:43:03;;;;;;;0.13;0.13;;;;;;;;;;4965621;28;20405;-84
2022/07/07 10:45:37;;;;;;;0.17;0.17;;;;;;;;;;4976653;28;20456;-85
2022/07/07 10:48:40;;;;;;;0.00;0.00;;;;;;;;;;4975283;28;20089;-85
2022/07/07 10:51:16;;;;;;;0.13;0.13;;;;;;;;;;4977645;28;20061;-81
2022/07/07 10:54:02;;;;;;;0.52;0.10;;;;;;;;;;4977484;28;20031;-84
2022/07/07 10:56:29;;;;;;;0.30;0.20;;;;;;;;;;4977734;28;20030;-83
2022/07/07 10:59:01;;;;;;;0.00;0.00;;;;;;;;;;4976878;28;20030;-85
2022/07/07 11:01:30;;;;;;;0.45;0.43;;;;;;;;;;4975502;28;20030;-83
2022/07/07 11:03:56;;;;;;;0.05;0.05;;;;;;;;;;4977561;28;20055;-83
2022/07/07 11:06:22;;;;;;;0.28;0.15;;;;;;;;;;4975270;28;20035;-80
2022/07/07 11:08:55;;;;;;;0.20;0.15;;;;;;;;;;4973498;28;20037;-84
2022/07/07 11:11:20;;;;;;;1.77;0.93;;;;;;;;;;4966463;28;20045;-84
2022/07/07 11:13:45;;;;;;;0.10;0.10;;;;;;;;;;4975612;28;20114;-88
2022/07/07 11:16:16;;;;;;;0.00;0.00;;;;;;;;;;4975670;28;20088;-87
2022/07/07 11:18:49;;;;;;;0.15;0.15;;;;;;;;;;4968577;28;21082;-86
2022/07/07 11:21:14;;;;;;;;;;;;;;;;;;4976910;28;20110;-87
2022/07/07 11:23:55;;;;;;;0.20;0.20;;;;;;;;;;4971277;28;20316;-86
2022/07/07 11:26:27;;;;;;;0.05;0.05;;;;;;;;;;4971334;28;20114;-84
2022/07/07 11:28:54;;;;;;;0.10;0.10;;;;;;;;;;4972129;28;20030;-87
2022/07/07 11:31:25;;;;;;;0.03;0.03;;;;;;;;;;4959193;28;20507;-88
2022/07/07 11:33:57;;;;;;;2.53;0.52;;;;;;;;;;4974538;28;20058;-88
2022/07/07 11:36:26;;;;;;;0.10;0.10;;;;;;;;;;4973969;28;20022;-89
2022/07/07 11:38:57;;;;;;;1.17;0.80;;;;;;;;;;4965862;28;20123;-86
2022/07/07 11:41:46;;;;;;;0.17;0.17;;;;;;;;;;4976678;28;20074;-87
2022/07/07 11:44:21;;;;;;;0.22;0.20;;;;;;;;;;4975760;28;20297;-86
2022/07/07 11:46:52;;;;;;;0.85;0.10;;;;;;;;;;4972991;28;20131;-83
2022/07/07 11:49:19;;;;;;;1.67;0.90;;;;;;;;;;4971758;28;20035;-86
2022/07/07 11:51:47;;;;;;;0.55;0.55;;;;;;;;;;4972359;28;20023;-85
2022/07/07 11:54:13;;;;;;;0.38;0.30;;;;;;;;;;4973878;28;20163;-84
2022/07/07 11:56:39;;;;;;;4.40;0.20;;;;;;;;;;4975935;28;20496;-84
2022/07/07 11:59:12;;;;;;;0.10;0.10;;;;;;;;;;4975065;28;20444;-84
2022/07/07 12:01:41;;;;;;;0.52;0.52;;;;;;;;;;4976132;28;20045;-83
2022/07/07 12:04:18;;;;;;;0.35;0.35;;;;;;;;;;4974954;28;20030;-82
2022/07/07 12:06:44;;;;;;;0.00;0.00;;;;;;;;;;4971139;28;20018;-82
2022/07/07 12:09:10;;;;;;;0.08;0.08;;;;;;;;;;4970648;28;20031;-83
2022/07/07 12:11:42;;;;;;;0.13;0.10;;;;;;;;;;4970425;28;20026;-85
2022/07/07 12:14:09;;;;;;;0.65;0.30;;;;;;;;;;4973293;28;20027;-88
2022/07/07 12:16:42;;;;;;;0.70;0.45;;;;;;;;;;4963330;28;20035;-77
2022/07/07 12:19:10;;;;;;;;;;;;;;;;;;4973857;28;20022;-91
2022/07/07 12:21:42;;;;;;;0.10;0.10;;;;;;;;;;4969974;28;19933;-89
2022/07/07 12:24:08;;;;;;;0.10;0.10;;;;;;;;;;4972129;28;20034;-80
2022/07/07 12:26:42;;;;;;;0.10;0.10;;;;;;;;;;4966964;28;20556;-84
2022/07/07 12:29:08;;;;;;;0.00;0.00;;;;;;;;;;4969647;28;20430;-86
2022/07/07 12:31:35;;;;;;;0.00;0.00;;;;;;;;;;4973753;28;20018;-88
2022/07/07 12:34:15;;;;;;;0.57;0.40;;;;;;;;;;4974078;28;20050;-84
2022/07/07 12:36:45;;;;;;;0.20;0.13;;;;;;;;;;4970823;28;20038;-88
2022/07/07 12:39:10;;;;;;;0.73;0.52;;;;;;;;;;4973076;28;20018;-84
2022/07/07 12:41:40;;;;;;;0.52;0.52;;;;;;;;;;4967768;28;20031;-88
2022/07/07 12:44:21;;;;;;;0.10;0.10;;;;;;;;;;4969471;28;20022;-81
2022/07/07 12:46:47;;;;;;;0.00;0.00;;;;;;;;;;4971702;28;20034;-86
2022/07/07 12:49:13;;;;;;;0.00;0.00;;;;;;;;;;4960599;28;20031;-93
2022/07/07 12:51:49;;;;;;;0.13;0.13;;;;;;;;;;4988429;28;20031;-93
2022/07/07 12:54:24;;;;;;;0.30;0.25;;;;;;;;;;4986925;28;20035;-89
2022/07/07 12:57:00;;;;;;;1.55;0.55;;;;;;;;;;4982527;28;20035;-93
2022/07/07 12:59:26;;;;;;;0.10;0.10;;;;;;;;;;4987367;28;20023;-83
2022/07/07 13:01:55;;;;;;;0.20;0.10;;;;;;;;;;4990122;28;20045;-78
2022/07/07 13:04:21;;;;;;;0.32;0.32;;;;;;;;;;4993858;28;20054;-86
2022/07/07 13:06:48;;;;;;;2.83;0.88;;;;;;;;;;4993639;28;20014;-87
2022/07/07 13:09:13;;;;;;;0.85;0.30;;;;;;;;;;4996617;28;20065;-83
2022/07/07 13:11:41;;;;;;;0.47;0.22;;;;;;;;;;4995579;28;20066;-89
2022/07/07 13:14:09;;;;;;;0.52;0.32;;;;;;;;;;4993276;28;20123;-91
2022/07/07 13:16:35;;;;;;;0.38;0.35;;;;;;;;;;4992017;28;20111;-91
2022/07/07 13:19:03;;;;;;;0.10;0.10;;;;;;;;;;4989015;28;20022;-81
2022/07/07 13:21:28;;;;;;;0.10;0.10;;;;;;;;;;4983812;28;20035;-90
2022/07/07 13:23:55;;;;;;;0.80;0.22;;;;;;;;;;4980369;28;20166;-93
2022/07/07 13:26:21;;;;;;;0.00;0.00;;;;;;;;;;4979611;28;20046;-94
2022/07/07 13:28:46;;;;;;;0.13;0.13;;;;;;;;;;4981858;28;20015;-91
2022/07/07 13:31:13;;;;;;;1.27;0.63;;;;;;;;;;4980366;28;20023;-89
2022/07/07 13:33:43;;;;;;;0.03;0.03;;;;;;;;;;4985681;28;20034;-86
2022/07/07 13:36:09;;;;;;;4.85;0.17;;;;;;;;;;4992894;28;20034;-77
2022/07/07 13:38:37;;;;;;;0.10;0.10;;;;;;;;;;5011115;28;20022;-82
2022/07/07 13:41:02;;;;;;;0.20;0.20;;;;;;;;;;4983824;28;20383;-87
2022/07/07 13:43:27;;;;;;;0.00;0.00;;;;;;;;;;4965678;28;20018;-88
2022/07/07 13:45:55;;;;;;;0.70;0.30;;;;;;;;;;4959063;28;20452;-86
2022/07/07 13:48:21;;;;;;;0.50;0.38;;;;;;;;;;4972984;28;20026;-86
2022/07/07 13:50:46;;;;;;;0.20;0.10;;;;;;;;;;4976801;28;20030;-89
2022/07/07 13:53:12;;;;;;;0.00;0.00;;;;;;;;;;4983468;28;20464;-89
2022/07/07 13:55:38;;;;;;;1.00;0.60;;;;;;;;;;4977853;28;20111;-88
2022/07/07 13:58:04;;;;;;;0.00;0.00;;;;;;;;;;4979189;28;20062;-88
2022/07/07 14:00:30;;;;;;;0.30;0.13;;;;;;;;;;4978784;28;20053;-88
2022/07/07 14:02:58;;;;;;;2.30;1.20;;;;;;;;;;4979380;28;20035;-89
2022/07/07 14:05:23;;;;;;;0.20;0.13;;;;;;;;;;4977268;28;20038;-88
2022/07/07 14:07:49;;;;;;;1.75;0.20;;;;;;;;;;4978798;28;20368;-88
2022/07/07 14:10:17;;;;;;;0.68;0.50;;;;;;;;;;4979190;28;20027;-86
2022/07/07 14:12:42;;;;;;;0.13;0.13;;;;;;;;;;4979644;28;20031;-90
2022/07/07 14:15:09;;;;;;;0.43;0.30;;;;;;;;;;4978371;28;20042;-89
2022/07/07 14:17:34;;;;;;;0.15;0.15;;;;;;;;;;4977971;28;20027;-84
2022/07/07 14:20:00;;;;;;;0.63;0.20;;;;;;;;;;4979474;28;20154;-87
2022/07/07 14:22:26;;;;;;;0.08;0.08;;;;;;;;;;4978521;28;20432;-88
2022/07/07 14:24:51;;;;;;;0.20;0.20;;;;;;;;;;4970194;28;20046;-86
2022/07/07 14:27:19;;;;;;;2.40;0.38;;;;;;;;;;4978341;28;20026;-89
2022/07/07 14:29:48;;;;;;;0.35;0.35;;;;;;;;;;4978766;28;20098;-89
2022/07/07 14:32:14;;;;;;;1.25;0.50;;;;;;;;;;4978169;28;20034;-89
2022/07/07 14:34:39;;;;;;;0.70;0.63;;;;;;;;;;4942705;28;20038;-86
2022/07/07 14:37:07;;;;;;;0.75;0.63;;;;;;;;;;4973721;28;20090;-90
2022/07/07 14:39:35;;;;;;;0.17;0.17;;;;;;;;;;4977684;28;20023;-88
2022/07/07 14:42:02;;;;;;;0.00;0.00;;;;;;;;;;4978521;28;20110;-90
2022/07/07 14:44:28;;;;;;;0.38;0.20;;;;;;;;;;4979257;28;20019;-89
2022/07/07 14:46:53;;;;;;;0.45;0.45;;;;;;;;;;4976434;28;20090;-89
2022/07/07 14:49:19;;;;;;;0.43;0.30;;;;;;;;;;4979692;28;20102;-89